sensor_id;sensor_type;location;lat;lon;timestamp;pressure;altitude;pressure_sealevel;temperature;humidity
53900;BME280;40509;32.858;-116.858;2023-07-30T00:00:59;97723.56;;;29.73;44.60
53900;BME280;40509;32.858;-116.858;2023-07-30T00:03:26;97719.25;;;29.72;44.91
53900;BME280;40509;32.858;-116.858;2023-07-30T00:05:54;97719.88;;;29.74;44.80
53900;BME280;40509;32.858;-116.858;2023-07-30T00:08:21;97720.91;;;29.73;44.85
53900;BME280;40509;32.858;-116.858;2023-07-30T00:10:49;97719.25;;;29.72;44.71
53900;BME280;40509;32.858;-116.858;2023-07-30T00:13:16;97724.56;;;29.72;44.86
53900;BME280;40509;32.858;-116.858;2023-07-30T00:15:45;97722.53;;;29.74;44.72
53900;BME280;40509;32.858;-116.858;2023-07-30T00:18:12;97718.84;;;29.75;44.72
53900;BME280;40509;32.858;-116.858;2023-07-30T00:20:39;97717.81;;;29.76;44.86
53900;BME280;40509;32.858;-116.858;2023-07-30T00:23:06;97717.00;;;29.75;44.95
53900;BME280;40509;32.858;-116.858;2023-07-30T00:25:33;97718.44;;;29.78;45.11
53900;BME280;40509;32.858;-116.858;2023-07-30T00:27:59;97710.88;;;29.75;45.15
53900;BME280;40509;32.858;-116.858;2023-07-30T00:30:26;97715.16;;;29.76;44.92
53900;BME280;40509;32.858;-116.858;2023-07-30T00:32:53;97712.50;;;29.76;45.12
53900;BME280;40509;32.858;-116.858;2023-07-30T00:35:20;97716.19;;;29.82;44.95
53900;BME280;40509;32.858;-116.858;2023-07-30T00:37:48;97717.78;;;29.83;45.11
53900;BME280;40509;32.858;-116.858;2023-07-30T00:40:16;97724.34;;;29.80;45.18
53900;BME280;40509;32.858;-116.858;2023-07-30T00:42:43;97722.72;;;29.79;44.98
53900;BME280;40509;32.858;-116.858;2023-07-30T00:45:11;97719.84;;;29.81;45.26
53900;BME280;40509;32.858;-116.858;2023-07-30T00:47:37;97719.84;;;29.81;45.13
53900;BME280;40509;32.858;-116.858;2023-07-30T00:50:05;97715.97;;;29.83;44.98
53900;BME280;40509;32.858;-116.858;2023-07-30T00:52:33;97713.28;;;29.83;45.05
53900;BME280;40509;32.858;-116.858;2023-07-30T00:55:03;97721.91;;;29.85;45.09
53900;BME280;40509;32.858;-116.858;2023-07-30T00:57:30;97719.88;;;29.87;45.08
53900;BME280;40509;32.858;-116.858;2023-07-30T00:59:58;97718.41;;;29.85;45.11
53900;BME280;40509;32.858;-116.858;2023-07-30T01:02:25;97717.41;;;29.86;45.18
53900;BME280;40509;32.858;-116.858;2023-07-30T01:04:54;97723.31;;;29.88;45.15
53900;BME280;40509;32.858;-116.858;2023-07-30T01:07:21;97722.31;;;29.89;45.20
53900;BME280;40509;32.858;-116.858;2023-07-30T01:09:48;97719.03;;;29.87;45.20
53900;BME280;40509;32.858;-116.858;2023-07-30T01:12:15;97721.69;;;29.87;45.34
53900;BME280;40509;32.858;-116.858;2023-07-30T01:14:42;97725.41;;;29.86;45.44
53900;BME280;40509;32.858;-116.858;2023-07-30T01:17:10;97718.00;;;29.88;45.06
53900;BME280;40509;32.858;-116.858;2023-07-30T01:19:38;97716.56;;;29.92;45.13
53900;BME280;40509;32.858;-116.858;2023-07-30T01:22:04;97709.00;;;29.89;45.28
53900;BME280;40509;32.858;-116.858;2023-07-30T01:24:31;97720.25;;;29.91;45.31
53900;BME280;40509;32.858;-116.858;2023-07-30T01:27:02;97713.31;;;29.90;45.30
53900;BME280;40509;32.858;-116.858;2023-07-30T01:32:07;97713.09;;;29.91;45.32
53900;BME280;40509;32.858;-116.858;2023-07-30T01:34:35;97717.00;;;29.89;45.28
53900;BME280;40509;32.858;-116.858;2023-07-30T01:37:04;97715.97;;;29.90;45.40
53900;BME280;40509;32.858;-116.858;2023-07-30T01:39:32;97722.69;;;29.92;45.33
53900;BME280;40509;32.858;-116.858;2023-07-30T01:42:00;97723.53;;;29.93;45.15
53900;BME280;40509;32.858;-116.858;2023-07-30T01:44:27;97725.97;;;29.94;45.23
53900;BME280;40509;32.858;-116.858;2023-07-30T01:46:54;97730.88;;;29.91;45.65
53900;BME280;40509;32.858;-116.858;2023-07-30T01:49:21;97730.88;;;29.91;45.39
53900;BME280;40509;32.858;-116.858;2023-07-30T01:51:48;97725.56;;;29.91;45.54
53900;BME280;40509;32.858;-116.858;2023-07-30T01:54:15;97732.31;;;29.93;45.66
53900;BME280;40509;32.858;-116.858;2023-07-30T01:56:41;97739.50;;;29.93;45.59
53900;BME280;40509;32.858;-116.858;2023-07-30T01:59:08;97740.06;;;29.95;45.51
53900;BME280;40509;32.858;-116.858;2023-07-30T02:01:35;97752.78;;;29.93;45.69
53900;BME280;40509;32.858;-116.858;2023-07-30T02:04:02;97738.66;;;29.92;45.55
53900;BME280;40509;32.858;-116.858;2023-07-30T02:06:29;97740.06;;;29.95;45.55
53900;BME280;40509;32.858;-116.858;2023-07-30T02:08:56;97739.50;;;29.93;45.51
53900;BME280;40509;32.858;-116.858;2023-07-30T02:11:23;97742.38;;;29.91;45.65
53900;BME280;40509;32.858;-116.858;2023-07-30T02:13:50;97733.31;;;29.92;45.80
53900;BME280;40509;32.858;-116.858;2023-07-30T02:16:17;97739.50;;;29.93;45.59
53900;BME280;40509;32.858;-116.858;2023-07-30T02:18:44;97743.16;;;29.92;45.77
53900;BME280;40509;32.858;-116.858;2023-07-30T02:21:10;97743.78;;;29.94;45.71
53900;BME280;40509;32.858;-116.858;2023-07-30T02:23:37;97745.81;;;29.92;45.53
53900;BME280;40509;32.858;-116.858;2023-07-30T02:26:04;97746.84;;;29.91;45.72
53900;BME280;40509;32.858;-116.858;2023-07-30T02:28:31;97751.38;;;29.90;45.88
53900;BME280;40509;32.858;-116.858;2023-07-30T02:30:58;97743.16;;;29.92;45.63
53900;BME280;40509;32.858;-116.858;2023-07-30T02:33:25;97745.81;;;29.92;45.92
53900;BME280;40509;32.858;-116.858;2023-07-30T02:35:51;97743.97;;;29.92;45.62
53900;BME280;40509;32.858;-116.858;2023-07-30T02:38:18;97748.50;;;29.92;45.86
53900;BME280;40509;32.858;-116.858;2023-07-30T02:40:45;97746.03;;;29.90;45.78
53900;BME280;40509;32.858;-116.858;2023-07-30T02:43:12;97744.59;;;29.94;45.62
53900;BME280;40509;32.858;-116.858;2023-07-30T02:45:39;97745.22;;;29.97;45.88
53900;BME280;40509;32.858;-116.858;2023-07-30T02:48:05;97756.25;;;29.93;45.79
53900;BME280;40509;32.858;-116.858;2023-07-30T02:50:32;97756.69;;;29.90;45.94
53900;BME280;40509;32.858;-116.858;2023-07-30T02:52:59;97753.00;;;29.91;46.01
53900;BME280;40509;32.858;-116.858;2023-07-30T02:55:26;97764.88;;;29.89;45.77
53900;BME280;40509;32.858;-116.858;2023-07-30T02:57:53;97761.00;;;29.91;45.92
53900;BME280;40509;32.858;-116.858;2023-07-30T03:00:20;97760.38;;;29.89;46.04
53900;BME280;40509;32.858;-116.858;2023-07-30T03:02:47;97759.94;;;29.92;45.71
53900;BME280;40509;32.858;-116.858;2023-07-30T03:05:14;97755.25;;;29.88;45.96
53900;BME280;40509;32.858;-116.858;2023-07-30T03:07:43;97761.00;;;29.91;46.00
53900;BME280;40509;32.858;-116.858;2023-07-30T03:10:10;97763.03;;;29.89;45.81
53900;BME280;40509;32.858;-116.858;2023-07-30T03:12:37;97763.47;;;29.86;46.09
53900;BME280;40509;32.858;-116.858;2023-07-30T03:15:03;97756.28;;;29.87;45.99
53900;BME280;40509;32.858;-116.858;2023-07-30T03:17:31;97767.75;;;29.87;45.93
53900;BME280;40509;32.858;-116.858;2023-07-30T03:19:58;97773.44;;;29.84;46.05
53900;BME280;40509;32.858;-116.858;2023-07-30T03:22:25;97771.22;;;29.88;46.04
53900;BME280;40509;32.858;-116.858;2023-07-30T03:24:52;97777.56;;;29.87;46.01
53900;BME280;40509;32.858;-116.858;2023-07-30T03:27:19;97779.22;;;29.88;46.00
53900;BME280;40509;32.858;-116.858;2023-07-30T03:29:48;97782.47;;;29.83;46.12
53900;BME280;40509;32.858;-116.858;2023-07-30T03:32:14;97782.09;;;29.86;46.06
53900;BME280;40509;32.858;-116.858;2023-07-30T03:34:41;97781.44;;;29.84;46.08
53900;BME280;40509;32.858;-116.858;2023-07-30T03:37:08;97788.00;;;29.88;46.04
53900;BME280;40509;32.858;-116.858;2023-07-30T03:39:35;97783.94;;;29.86;46.05
53900;BME280;40509;32.858;-116.858;2023-07-30T03:42:01;97786.97;;;29.83;46.23
53900;BME280;40509;32.858;-116.858;2023-07-30T03:44:28;97788.84;;;29.89;45.83
53900;BME280;40509;32.858;-116.858;2023-07-30T03:46:55;97787.41;;;29.86;46.26
53900;BME280;40509;32.858;-116.858;2023-07-30T03:49:23;97789.41;;;29.84;46.08
53900;BME280;40509;32.858;-116.858;2023-07-30T03:51:50;97791.47;;;29.82;46.16
53900;BME280;40509;32.858;-116.858;2023-07-30T03:54:16;97796.81;;;29.82;46.14
53900;BME280;40509;32.858;-116.858;2023-07-30T03:56:44;97806.44;;;29.83;46.11
53900;BME280;40509;32.858;-116.858;2023-07-30T03:59:11;97817.69;;;29.85;46.21
53900;BME280;40509;32.858;-116.858;2023-07-30T04:01:38;97814.41;;;29.83;46.09
53900;BME280;40509;32.858;-116.858;2023-07-30T04:04:05;97822.78;;;29.80;46.17
53900;BME280;40509;32.858;-116.858;2023-07-30T04:06:32;97819.53;;;29.78;46.27
53900;BME280;40509;32.858;-116.858;2023-07-30T04:08:59;97822.19;;;29.78;46.40
53900;BME280;40509;32.858;-116.858;2023-07-30T04:11:26;97827.72;;;29.83;46.25
53900;BME280;40509;32.858;-116.858;2023-07-30T04:13:52;97827.72;;;29.76;46.27
53900;BME280;40509;32.858;-116.858;2023-07-30T04:16:19;97829.56;;;29.76;46.28
53900;BME280;40509;32.858;-116.858;2023-07-30T04:18:46;97820.75;;;29.75;46.36
53900;BME280;40509;32.858;-116.858;2023-07-30T04:21:13;97817.09;;;29.76;46.51
53900;BME280;40509;32.858;-116.858;2023-07-30T04:23:41;97821.56;;;29.76;46.46
53900;BME280;40509;32.858;-116.858;2023-07-30T04:26:08;97821.78;;;29.74;46.45
53900;BME280;40509;32.858;-116.858;2023-07-30T04:28:35;97827.94;;;29.75;46.20
53900;BME280;40509;32.858;-116.858;2023-07-30T04:31:02;97824.22;;;29.76;46.40
53900;BME280;40509;32.858;-116.858;2023-07-30T04:33:29;97823.44;;;29.75;46.38
53900;BME280;40509;32.858;-116.858;2023-07-30T04:35:56;97820.97;;;29.74;46.58
53900;BME280;40509;32.858;-116.858;2023-07-30T04:38:23;97815.88;;;29.72;46.49
53900;BME280;40509;32.858;-116.858;2023-07-30T04:40:51;97821.19;;;29.72;46.47
53900;BME280;40509;32.858;-116.858;2023-07-30T04:43:17;97825.47;;;29.73;46.40
53900;BME280;40509;32.858;-116.858;2023-07-30T04:45:46;97827.72;;;29.70;46.57
53900;BME280;40509;32.858;-116.858;2023-07-30T04:48:13;97834.06;;;29.69;46.68
53900;BME280;40509;32.858;-116.858;2023-07-30T04:50:40;97833.06;;;29.76;46.42
53900;BME280;40509;32.858;-116.858;2023-07-30T04:53:08;97835.28;;;29.73;46.27
53900;BME280;40509;32.858;-116.858;2023-07-30T04:55:35;97831.41;;;29.69;46.41
53900;BME280;40509;32.858;-116.858;2023-07-30T04:58:02;97840.63;;;29.73;46.33
53900;BME280;40509;32.858;-116.858;2023-07-30T05:00:30;97833.25;;;29.68;46.64
53900;BME280;40509;32.858;-116.858;2023-07-30T05:02:56;97834.88;;;29.69;46.61
53900;BME280;40509;32.858;-116.858;2023-07-30T05:05:23;97845.34;;;29.71;46.65
53900;BME280;40509;32.858;-116.858;2023-07-30T05:07:50;97844.94;;;29.67;46.74
53900;BME280;40509;32.858;-116.858;2023-07-30T05:10:17;97846.75;;;29.67;46.56
53900;BME280;40509;32.858;-116.858;2023-07-30T05:12:44;97847.59;;;29.67;46.52
53900;BME280;40509;32.858;-116.858;2023-07-30T05:15:10;97842.88;;;29.69;46.45
53900;BME280;40509;32.858;-116.858;2023-07-30T05:17:37;97834.50;;;29.66;46.68
53900;BME280;40509;32.858;-116.858;2023-07-30T05:20:04;97838.16;;;29.65;46.64
53900;BME280;40509;32.858;-116.858;2023-07-30T05:22:31;97831.63;;;29.67;46.63
53900;BME280;40509;32.858;-116.858;2023-07-30T05:24:58;97829.78;;;29.61;46.55
53900;BME280;40509;32.858;-116.858;2023-07-30T05:27:25;97833.28;;;29.62;46.48
53900;BME280;40509;32.858;-116.858;2023-07-30T05:29:54;97839.19;;;29.64;46.57
53900;BME280;40509;32.858;-116.858;2023-07-30T05:32:22;97840.41;;;29.61;46.75
53900;BME280;40509;32.858;-116.858;2023-07-30T05:34:48;97840.22;;;29.63;46.61
53900;BME280;40509;32.858;-116.858;2023-07-30T05:37:15;97841.84;;;29.64;46.66
53900;BME280;40509;32.858;-116.858;2023-07-30T05:39:42;97847.59;;;29.60;46.63
53900;BME280;40509;32.858;-116.858;2023-07-30T05:42:09;97854.75;;;29.60;46.48
53900;BME280;40509;32.858;-116.858;2023-07-30T05:44:36;97860.09;;;29.60;46.72
53900;BME280;40509;32.858;-116.858;2023-07-30T05:47:03;97852.28;;;29.58;46.70
53900;BME280;40509;32.858;-116.858;2023-07-30T05:49:30;97858.81;;;29.63;46.66
53900;BME280;40509;32.858;-116.858;2023-07-30T05:51:57;97859.03;;;29.61;46.64
53900;BME280;40509;32.858;-116.858;2023-07-30T05:54:24;97867.66;;;29.56;46.59
53900;BME280;40509;32.858;-116.858;2023-07-30T05:56:50;97858.84;;;29.56;46.69
53900;BME280;40509;32.858;-116.858;2023-07-30T05:59:17;97861.09;;;29.59;46.62
53900;BME280;40509;32.858;-116.858;2023-07-30T06:01:44;97866.84;;;29.49;46.54
53900;BME280;40509;32.858;-116.858;2023-07-30T06:04:11;97857.81;;;29.50;46.80
53900;BME280;40509;32.858;-116.858;2023-07-30T06:06:38;97852.91;;;29.54;46.72
53900;BME280;40509;32.858;-116.858;2023-07-30T06:09:05;97852.09;;;29.53;46.51
53900;BME280;40509;32.858;-116.858;2023-07-30T06:11:32;97841.66;;;29.52;46.68
53900;BME280;40509;32.858;-116.858;2023-07-30T06:13:59;97843.50;;;29.51;46.48
53900;BME280;40509;32.858;-116.858;2023-07-30T06:16:25;97832.66;;;29.53;46.58
53900;BME280;40509;32.858;-116.858;2023-07-30T06:18:52;97840.41;;;29.48;46.73
53900;BME280;40509;32.858;-116.858;2023-07-30T06:21:19;97835.94;;;29.48;46.59
53900;BME280;40509;32.858;-116.858;2023-07-30T06:23:45;97835.94;;;29.48;46.66
53900;BME280;40509;32.858;-116.858;2023-07-30T06:26:12;97838.59;;;29.48;46.62
53900;BME280;40509;32.858;-116.858;2023-07-30T06:28:39;97840.84;;;29.44;46.74
53900;BME280;40509;32.858;-116.858;2023-07-30T06:31:06;97837.97;;;29.46;46.57
53900;BME280;40509;32.858;-116.858;2023-07-30T06:33:34;97839.03;;;29.45;46.69
53900;BME280;40509;32.858;-116.858;2023-07-30T06:36:00;97833.88;;;29.50;46.65
53900;BME280;40509;32.858;-116.858;2023-07-30T06:38:27;97830.41;;;29.43;46.69
53900;BME280;40509;32.858;-116.858;2023-07-30T06:40:54;97835.72;;;29.43;46.62
53900;BME280;40509;32.858;-116.858;2023-07-30T06:43:23;97834.72;;;29.44;46.58
53900;BME280;40509;32.858;-116.858;2023-07-30T06:45:50;97833.50;;;29.40;46.80
53900;BME280;40509;32.858;-116.858;2023-07-30T06:48:17;97837.38;;;29.44;46.56
53900;BME280;40509;32.858;-116.858;2023-07-30T06:50:44;97831.63;;;29.47;46.38
53900;BME280;40509;32.858;-116.858;2023-07-30T06:53:10;97828.78;;;29.42;46.53
53900;BME280;40509;32.858;-116.858;2023-07-30T06:55:37;97823.66;;;29.40;46.69
53900;BME280;40509;32.858;-116.858;2023-07-30T06:58:04;97817.91;;;29.37;46.66
53900;BME280;40509;32.858;-116.858;2023-07-30T07:00:31;97819.56;;;29.31;46.79
53900;BME280;40509;32.858;-116.858;2023-07-30T07:02:58;97818.13;;;29.35;46.67
53900;BME280;40509;32.858;-116.858;2023-07-30T07:05:25;97821.84;;;29.34;46.71
53900;BME280;40509;32.858;-116.858;2023-07-30T07:07:52;97818.97;;;29.36;46.65
53900;BME280;40509;32.858;-116.858;2023-07-30T07:10:18;97819.78;;;29.30;46.81
53900;BME280;40509;32.858;-116.858;2023-07-30T07:12:45;97813.03;;;29.34;46.59
53900;BME280;40509;32.858;-116.858;2023-07-30T07:15:12;97806.06;;;29.33;46.53
53900;BME280;40509;32.858;-116.858;2023-07-30T07:17:39;97802.19;;;29.29;46.54
53900;BME280;40509;32.858;-116.858;2023-07-30T07:20:06;97806.06;;;29.26;46.75
53900;BME280;40509;32.858;-116.858;2023-07-30T07:22:33;97803.59;;;29.24;46.76
53900;BME280;40509;32.858;-116.858;2023-07-30T07:25:00;97798.25;;;29.24;46.68
53900;BME280;40509;32.858;-116.858;2023-07-30T07:27:27;97796.25;;;29.26;46.73
53900;BME280;40509;32.858;-116.858;2023-07-30T07:29:54;97791.50;;;29.22;46.74
53900;BME280;40509;32.858;-116.858;2023-07-30T07:32:22;97789.69;;;29.22;46.68
53900;BME280;40509;32.858;-116.858;2023-07-30T07:34:49;97786.19;;;29.22;46.70
53900;BME280;40509;32.858;-116.858;2023-07-30T07:37:16;97782.31;;;29.18;46.83
53900;BME280;40509;32.858;-116.858;2023-07-30T07:39:45;97781.09;;;29.20;46.84
53900;BME280;40509;32.858;-116.858;2023-07-30T07:42:12;97780.06;;;29.21;46.46
53900;BME280;40509;32.858;-116.858;2023-07-30T07:44:39;97780.06;;;29.15;46.73
53900;BME280;40509;32.858;-116.858;2023-07-30T07:47:06;97787.63;;;29.18;46.77
53900;BME280;40509;32.858;-116.858;2023-07-30T07:49:33;97791.50;;;29.15;46.71
53900;BME280;40509;32.858;-116.858;2023-07-30T07:52:00;97796.81;;;29.15;46.64
53900;BME280;40509;32.858;-116.858;2023-07-30T07:54:27;97793.78;;;29.18;46.58
53900;BME280;40509;32.858;-116.858;2023-07-30T07:56:53;97787.44;;;29.19;46.50
53900;BME280;40509;32.858;-116.858;2023-07-30T07:59:20;97786.81;;;29.17;46.77
53900;BME280;40509;32.858;-116.858;2023-07-30T08:01:47;97783.16;;;29.12;46.39
53900;BME280;40509;32.858;-116.858;2023-07-30T08:04:14;97778.63;;;29.19;46.49
53900;BME280;40509;32.858;-116.858;2023-07-30T08:06:41;97784.78;;;29.13;46.48
53900;BME280;40509;32.858;-116.858;2023-07-30T08:09:08;97775.78;;;29.14;46.61
53900;BME280;40509;32.858;-116.858;2023-07-30T08:11:34;97775.38;;;29.10;46.61
53900;BME280;40509;32.858;-116.858;2023-07-30T08:14:01;97771.06;;;29.09;46.83
53900;BME280;40509;32.858;-116.858;2023-07-30T08:16:28;97775.38;;;29.03;46.56
53900;BME280;40509;32.858;-116.858;2023-07-30T08:18:55;97763.91;;;29.03;46.71
53900;BME280;40509;32.858;-116.858;2023-07-30T08:21:22;97768.63;;;29.01;46.76
53900;BME280;40509;32.858;-116.858;2023-07-30T08:23:48;97763.31;;;29.01;46.63
53900;BME280;40509;32.858;-116.858;2023-07-30T08:26:15;97765.97;;;29.01;46.66
53900;BME280;40509;32.858;-116.858;2023-07-30T08:28:42;97764.97;;;29.02;46.65
53900;BME280;40509;32.858;-116.858;2023-07-30T08:31:09;97765.56;;;29.04;46.60
53900;BME280;40509;32.858;-116.858;2023-07-30T08:33:35;97763.91;;;28.96;46.68
53900;BME280;40509;32.858;-116.858;2023-07-30T08:36:02;97760.03;;;28.92;46.81
53900;BME280;40509;32.858;-116.858;2023-07-30T08:38:29;97757.38;;;28.92;46.88
53900;BME280;40509;32.858;-116.858;2023-07-30T08:40:56;97757.56;;;28.97;46.62
53900;BME280;40509;32.858;-116.858;2023-07-30T08:43:27;97755.13;;;28.96;46.64
53900;BME280;40509;32.858;-116.858;2023-07-30T08:45:54;97758.81;;;28.94;46.66
53900;BME280;40509;32.858;-116.858;2023-07-30T08:48:21;97756.75;;;28.90;46.90
53900;BME280;40509;32.858;-116.858;2023-07-30T08:50:48;97749.81;;;28.89;46.83
53900;BME280;40509;32.858;-116.858;2023-07-30T08:53:16;97746.94;;;28.90;46.79
53900;BME280;40509;32.858;-116.858;2023-07-30T08:55:43;97751.66;;;28.88;46.81
53900;BME280;40509;32.858;-116.858;2023-07-30T08:58:10;97747.34;;;28.87;46.74
53900;BME280;40509;32.858;-116.858;2023-07-30T09:00:38;97750.66;;;28.89;46.75
53900;BME280;40509;32.858;-116.858;2023-07-30T09:03:05;97748.16;;;28.81;46.60
53900;BME280;40509;32.858;-116.858;2023-07-30T09:05:33;97743.25;;;28.78;46.67
53900;BME280;40509;32.858;-116.858;2023-07-30T09:08:00;97745.31;;;28.76;46.87
53900;BME280;40509;32.858;-116.858;2023-07-30T09:10:27;97742.47;;;28.84;46.65
53900;BME280;40509;32.858;-116.858;2023-07-30T09:12:54;97737.16;;;28.84;46.59
53900;BME280;40509;32.858;-116.858;2023-07-30T09:15:34;97725.69;;;28.84;46.72
53900;BME280;40509;32.858;-116.858;2023-07-30T09:18:06;97728.16;;;28.79;46.51
53900;BME280;40509;32.858;-116.858;2023-07-30T09:20:38;97722.00;;;28.78;46.92
53900;BME280;40509;32.858;-116.858;2023-07-30T09:23:06;97719.56;;;28.76;46.60
53900;BME280;40509;32.858;-116.858;2023-07-30T09:25:36;97718.75;;;28.76;46.48
53900;BME280;40509;32.858;-116.858;2023-07-30T09:28:05;97718.75;;;28.76;46.79
53900;BME280;40509;32.858;-116.858;2023-07-30T09:30:32;97724.06;;;28.76;46.51
53900;BME280;40509;32.858;-116.858;2023-07-30T09:33:02;97727.31;;;28.71;46.91
53900;BME280;40509;32.858;-116.858;2023-07-30T09:35:29;97722.84;;;28.72;46.51
53900;BME280;40509;32.858;-116.858;2023-07-30T09:38:00;97725.69;;;28.77;46.35
53900;BME280;40509;32.858;-116.858;2023-07-30T09:40:35;97724.88;;;28.70;46.68
53900;BME280;40509;32.858;-116.858;2023-07-30T09:43:03;97719.13;;;28.66;46.75
53900;BME280;40509;32.858;-116.858;2023-07-30T09:45:33;97713.41;;;28.63;46.65
53900;BME280;40509;32.858;-116.858;2023-07-30T09:48:01;97701.38;;;28.67;46.81
53900;BME280;40509;32.858;-116.858;2023-07-30T09:50:29;97704.84;;;28.67;46.44
53900;BME280;40509;32.858;-116.858;2023-07-30T09:52:58;97696.28;;;28.65;46.51
53900;BME280;40509;32.858;-116.858;2023-07-30T09:55:25;97700.34;;;28.68;46.55
53900;BME280;40509;32.858;-116.858;2023-07-30T09:57:52;97698.72;;;28.67;46.47
53900;BME280;40509;32.858;-116.858;2023-07-30T10:00:19;97695.59;;;28.63;46.78
53900;BME280;40509;32.858;-116.858;2023-07-30T10:02:46;97697.66;;;28.61;46.53
53900;BME280;40509;32.858;-116.858;2023-07-30T10:05:16;97695.59;;;28.63;46.31
53900;BME280;40509;32.858;-116.858;2023-07-30T10:07:48;97697.66;;;28.61;46.54
53900;BME280;40509;32.858;-116.858;2023-07-30T10:10:16;97698.25;;;28.56;46.52
53900;BME280;40509;32.858;-116.858;2023-07-30T10:12:44;97692.16;;;28.63;46.68
53900;BME280;40509;32.858;-116.858;2023-07-30T10:15:11;97692.13;;;28.56;46.41
53900;BME280;40509;32.858;-116.858;2023-07-30T10:17:38;97691.72;;;28.59;46.34
53900;BME280;40509;32.858;-116.858;2023-07-30T10:20:20;97693.34;;;28.53;46.68
53900;BME280;40509;32.858;-116.858;2023-07-30T10:22:50;97687.25;;;28.53;46.60
53900;BME280;40509;32.858;-116.858;2023-07-30T10:25:20;97683.97;;;28.57;46.71
53900;BME280;40509;32.858;-116.858;2023-07-30T10:27:48;97679.06;;;28.54;46.53
53900;BME280;40509;32.858;-116.858;2023-07-30T10:30:17;97676.22;;;28.56;46.53
53900;BME280;40509;32.858;-116.858;2023-07-30T10:38:17;97683.31;;;28.49;46.41
53900;BME280;40509;32.858;-116.858;2023-07-30T10:43:47;97678.63;;;28.44;46.82
53900;BME280;40509;32.858;-116.858;2023-07-30T10:46:16;97679.44;;;28.44;46.78
53900;BME280;40509;32.858;-116.858;2023-07-30T10:48:44;97670.66;;;28.44;46.32
53900;BME280;40509;32.858;-116.858;2023-07-30T10:51:13;97667.22;;;28.50;46.11
53900;BME280;40509;32.858;-116.858;2023-07-30T10:53:47;97668.00;;;28.44;46.47
53900;BME280;40509;32.858;-116.858;2023-07-30T10:56:15;97664.94;;;28.40;46.49
53900;BME280;40509;32.858;-116.858;2023-07-30T10:58:43;97659.63;;;28.40;46.36
53900;BME280;40509;32.858;-116.858;2023-07-30T11:01:10;97654.94;;;28.36;46.54
53900;BME280;40509;32.858;-116.858;2023-07-30T11:03:37;97655.16;;;28.34;46.48
53900;BME280;40509;32.858;-116.858;2023-07-30T11:06:04;97651.28;;;28.37;46.72
53900;BME280;40509;32.858;-116.858;2023-07-30T11:08:41;97655.94;;;28.35;46.49
53900;BME280;40509;32.858;-116.858;2023-07-30T11:11:09;97651.06;;;28.38;46.16
53900;BME280;40509;32.858;-116.858;2023-07-30T11:13:40;97650.63;;;28.28;46.34
53900;BME280;40509;32.858;-116.858;2023-07-30T11:16:10;97645.75;;;28.32;46.76
53900;BME280;40509;32.858;-116.858;2023-07-30T11:18:38;97645.34;;;28.35;46.63
53900;BME280;40509;32.858;-116.858;2023-07-30T11:21:09;97645.13;;;28.30;46.37
53900;BME280;40509;32.858;-116.858;2023-07-30T11:23:37;97641.84;;;28.21;46.78
53900;BME280;40509;32.858;-116.858;2023-07-30T11:26:05;97640.44;;;28.25;46.52
53900;BME280;40509;32.858;-116.858;2023-07-30T11:28:33;97639.81;;;28.30;46.56
53900;BME280;40509;32.858;-116.858;2023-07-30T11:31:04;97637.16;;;28.30;46.50
53900;BME280;40509;32.858;-116.858;2023-07-30T11:33:31;97642.47;;;28.36;45.94
53900;BME280;40509;32.858;-116.858;2023-07-30T11:36:00;97641.88;;;28.27;46.01
53900;BME280;40509;32.858;-116.858;2023-07-30T11:38:28;97644.50;;;28.21;46.33
53900;BME280;40509;32.858;-116.858;2023-07-30T11:40:56;97648.81;;;28.22;46.55
53900;BME280;40509;32.858;-116.858;2023-07-30T11:43:23;97646.72;;;28.17;46.40
53900;BME280;40509;32.858;-116.858;2023-07-30T11:46:06;97648.41;;;28.32;46.19
53900;BME280;40509;32.858;-116.858;2023-07-30T11:48:34;97650.84;;;28.26;46.33
53900;BME280;40509;32.858;-116.858;2023-07-30T11:51:02;97652.88;;;28.24;45.90
53900;BME280;40509;32.858;-116.858;2023-07-30T11:53:45;97661.03;;;28.23;46.20
53900;BME280;40509;32.858;-116.858;2023-07-30T11:56:19;97653.47;;;28.20;46.41
53900;BME280;40509;32.858;-116.858;2023-07-30T11:58:46;97660.63;;;28.19;46.23
53900;BME280;40509;32.858;-116.858;2023-07-30T12:01:17;97662.66;;;28.17;46.59
53900;BME280;40509;32.858;-116.858;2023-07-30T12:03:44;97661.44;;;28.20;46.56
53900;BME280;40509;32.858;-116.858;2023-07-30T12:06:12;97666.53;;;28.21;46.17
53900;BME280;40509;32.858;-116.858;2023-07-30T12:08:39;97656.53;;;28.17;46.65
53900;BME280;40509;32.858;-116.858;2023-07-30T12:11:07;97658.56;;;28.15;46.15
53900;BME280;40509;32.858;-116.858;2023-07-30T12:13:34;97657.13;;;28.19;46.50
53900;BME280;40509;32.858;-116.858;2023-07-30T12:16:09;97656.94;;;28.14;46.13
53900;BME280;40509;32.858;-116.858;2023-07-30T12:18:38;97655.09;;;28.14;46.38
53900;BME280;40509;32.858;-116.858;2023-07-30T12:21:06;97659.81;;;28.12;45.88
53900;BME280;40509;32.858;-116.858;2023-07-30T12:23:34;97655.72;;;28.09;46.36
53900;BME280;40509;32.858;-116.858;2023-07-30T12:26:01;97656.31;;;28.05;46.61
53900;BME280;40509;32.858;-116.858;2023-07-30T12:28:33;97658.38;;;28.09;46.44
53900;BME280;40509;32.858;-116.858;2023-07-30T12:31:02;97664.25;;;28.05;46.56
53900;BME280;40509;32.858;-116.858;2023-07-30T12:33:29;97653.25;;;28.01;46.26
53900;BME280;40509;32.858;-116.858;2023-07-30T12:35:56;97654.06;;;28.02;46.21
53900;BME280;40509;32.858;-116.858;2023-07-30T12:38:23;97658.16;;;28.04;46.19
53900;BME280;40509;32.858;-116.858;2023-07-30T12:40:49;97653.38;;;28.00;46.30
53900;BME280;40509;32.858;-116.858;2023-07-30T12:43:16;97655.06;;;28.01;46.21